Time;durP1;ratioP1;P1;durP2;ratioP2;P2;SDS_P1;SDS_P2;PMS_P1;PMS_P2;Temp;Humidity;BMP_temperature;BMP_pressure;BME280_temperature;BME280_humidity;BME280_pressure;Samples;Min_cycle;Max_cycle;Signal;HPM_P1;HPM_P2
2022/09/08 00:00:46;;;;;;;5.32;1.90;;;;;;;;;;5054026;28;20489;-86
2022/09/08 00:03:15;;;;;;;4.60;1.50;;;;;;;;;;5052894;28;20044;-86
2022/09/08 00:05:52;;;;;;;2.33;1.38;;;;;;;;;;5056875;28;20045;-86
2022/09/08 00:08:20;;;;;;;3.55;1.35;;;;;;;;;;5058237;28;20129;-86
2022/09/08 00:10:50;;;;;;;5.72;1.20;;;;;;;;;;5056874;28;20024;-85
2022/09/08 00:13:16;;;;;;;2.10;1.30;;;;;;;;;;5057241;28;20037;-86
2022/09/08 00:15:42;;;;;;;2.05;1.30;;;;;;;;;;5056610;28;20040;-85
2022/09/08 00:18:07;;;;;;;3.28;1.40;;;;;;;;;;5056395;28;20037;-85
2022/09/08 00:20:33;;;;;;;1.60;1.30;;;;;;;;;;5057472;28;20033;-86
2022/09/08 00:22:59;;;;;;;3.08;1.10;;;;;;;;;;5057739;28;20033;-86
2022/09/08 00:25:24;;;;;;;3.90;1.35;;;;;;;;;;5055707;28;20036;-86
2022/09/08 00:27:50;;;;;;;1.70;1.10;;;;;;;;;;5055885;28;20032;-86
2022/09/08 00:30:16;;;;;;;4.05;1.20;;;;;;;;;;5055374;28;20037;-86
2022/09/08 00:32:41;;;;;;;7.20;1.50;;;;;;;;;;5057140;28;20033;-86
2022/09/08 00:35:14;;;;;;;2.65;1.15;;;;;;;;;;5057640;28;20036;-86
2022/09/08 00:37:41;;;;;;;3.22;1.40;;;;;;;;;;5057276;28;20107;-85
2022/09/08 00:40:07;;;;;;;4.18;1.55;;;;;;;;;;5057050;28;20039;-84
2022/09/08 00:42:33;;;;;;;3.45;1.50;;;;;;;;;;5056178;28;20041;-85
2022/09/08 00:44:58;;;;;;;4.38;1.50;;;;;;;;;;5058120;28;20138;-86
2022/09/08 00:47:36;;;;;;;4.22;1.60;;;;;;;;;;5058351;28;20068;-87
2022/09/08 00:50:04;;;;;;;2.70;1.80;;;;;;;;;;5058187;28;20501;-86
2022/09/08 00:53:00;;;;;;;4.20;1.80;;;;;;;;;;5058118;28;20069;-86
2022/09/08 00:55:28;;;;;;;3.72;1.60;;;;;;;;;;5055381;28;20413;-86
2022/09/08 00:57:54;;;;;;;3.30;1.80;;;;;;;;;;5057216;28;20068;-86
2022/09/08 01:00:20;;;;;;;5.43;2.00;;;;;;;;;;5056457;28;20051;-86
2022/09/08 01:02:46;;;;;;;4.20;1.90;;;;;;;;;;5057906;28;20075;-86
2022/09/08 01:05:15;;;;;;;5.20;2.08;;;;;;;;;;5056496;28;20055;-86
2022/09/08 01:13:37;;;;;;;5.63;2.22;;;;;;;;;;5056213;28;20055;-85
2022/09/08 01:16:06;;;;;;;4.03;2.15;;;;;;;;;;5055404;28;20040;-85
2022/09/08 01:18:33;;;;;;;4.13;2.30;;;;;;;;;;5054824;28;20024;-85
2022/09/08 01:21:21;;;;;;;4.60;2.60;;;;;;;;;;5056218;28;20037;-86
2022/09/08 01:23:52;;;;;;;6.95;2.30;;;;;;;;;;5056453;28;20465;-86
2022/09/08 01:26:24;;;;;;;6.50;2.00;;;;;;;;;;5054725;28;20032;-85
2022/09/08 01:28:55;;;;;;;5.55;2.08;;;;;;;;;;5055786;28;20040;-86
2022/09/08 01:31:21;;;;;;;3.75;2.33;;;;;;;;;;5055877;28;20037;-85
2022/09/08 01:33:47;;;;;;;6.25;2.33;;;;;;;;;;5056751;28;20112;-86
2022/09/08 01:36:15;;;;;;;4.68;2.25;;;;;;;;;;5054578;28;20449;-85
2022/09/08 01:38:42;;;;;;;6.32;2.40;;;;;;;;;;5054127;28;20029;-86
2022/09/08 01:41:08;;;;;;;5.10;2.22;;;;;;;;;;5055533;28;20039;-85
2022/09/08 01:43:34;;;;;;;5.80;2.03;;;;;;;;;;5055626;28;20048;-85
2022/09/08 01:45:59;;;;;;;5.65;2.30;;;;;;;;;;5054543;28;20410;-84
2022/09/08 01:48:25;;;;;;;5.72;2.20;;;;;;;;;;5056058;28;20037;-85
2022/09/08 01:50:51;;;;;;;3.17;2.20;;;;;;;;;;5055740;28;20095;-85
2022/09/08 01:53:18;;;;;;;7.35;2.40;;;;;;;;;;5055416;28;20024;-85
2022/09/08 01:55:44;;;;;;;4.85;2.35;;;;;;;;;;5054292;28;20539;-85
2022/09/08 01:58:09;;;;;;;7.93;2.22;;;;;;;;;;5055052;28;20761;-85
2022/09/08 02:00:35;;;;;;;5.95;2.72;;;;;;;;;;5054801;28;20037;-85
2022/09/08 02:03:00;;;;;;;4.65;2.20;;;;;;;;;;5054063;28;20017;-86
2022/09/08 02:05:26;;;;;;;5.25;2.40;;;;;;;;;;5054636;28;20481;-86
2022/09/08 02:07:52;;;;;;;6.38;2.53;;;;;;;;;;5054644;28;20037;-86
2022/09/08 02:10:18;;;;;;;5.80;2.33;;;;;;;;;;5054122;28;20520;-84
2022/09/08 02:12:44;;;;;;;4.68;2.30;;;;;;;;;;5055093;28;20033;-85
2022/09/08 02:15:11;;;;;;;5.82;2.30;;;;;;;;;;5054655;28;20547;-85
2022/09/08 02:17:36;;;;;;;8.88;2.17;;;;;;;;;;5055404;28;20087;-86
2022/09/08 02:20:02;;;;;;;7.88;2.10;;;;;;;;;;5053967;28;20033;-86
2022/09/08 02:22:28;;;;;;;6.10;2.20;;;;;;;;;;5055285;28;20036;-85
2022/09/08 02:24:53;;;;;;;4.45;2.10;;;;;;;;;;5055819;28;20435;-86
2022/09/08 02:27:19;;;;;;;7.22;2.40;;;;;;;;;;5054089;28;20110;-86
2022/09/08 02:29:45;;;;;;;7.85;2.20;;;;;;;;;;5055808;28;20056;-86
2022/09/08 02:32:10;;;;;;;5.72;2.38;;;;;;;;;;5055618;28;20041;-86
2022/09/08 02:34:36;;;;;;;7.70;2.22;;;;;;;;;;5053392;28;20071;-86
2022/09/08 02:37:02;;;;;;;8.93;2.30;;;;;;;;;;5055114;28;20075;-85
2022/09/08 02:39:28;;;;;;;4.72;2.00;;;;;;;;;;5055113;28;20040;-85
2022/09/08 02:41:54;;;;;;;4.20;1.80;;;;;;;;;;5054733;28;20430;-85
2022/09/08 02:44:19;;;;;;;6.50;2.20;;;;;;;;;;5053435;28;20047;-86
2022/09/08 02:46:45;;;;;;;4.60;2.08;;;;;;;;;;5054465;28;20032;-85
2022/09/08 02:49:11;;;;;;;3.38;1.98;;;;;;;;;;5054844;28;20444;-86
2022/09/08 02:51:37;;;;;;;7.53;1.90;;;;;;;;;;5052934;28;20047;-84
2022/09/08 02:54:03;;;;;;;5.20;1.90;;;;;;;;;;5054175;28;20033;-86
2022/09/08 02:56:29;;;;;;;5.82;1.92;;;;;;;;;;5053532;28;20059;-85
2022/09/08 02:58:54;;;;;;;7.20;2.38;;;;;;;;;;5058741;28;20052;-86
2022/09/08 03:01:21;;;;;;;3.60;1.88;;;;;;;;;;5054791;28;20060;-85
2022/09/08 03:03:47;;;;;;;4.40;1.95;;;;;;;;;;5053964;28;20091;-85
2022/09/08 03:06:14;;;;;;;5.05;1.98;;;;;;;;;;5069156;28;20112;-86
2022/09/08 03:08:40;;;;;;;4.60;2.03;;;;;;;;;;5055069;28;20120;-86
2022/09/08 03:11:05;;;;;;;4.95;2.00;;;;;;;;;;5054391;28;20060;-86
2022/09/08 03:13:31;;;;;;;4.55;2.10;;;;;;;;;;5054653;28;20494;-86
2022/09/08 03:15:57;;;;;;;6.10;2.20;;;;;;;;;;5052439;28;20094;-85
2022/09/08 03:18:23;;;;;;;7.00;2.00;;;;;;;;;;5055221;28;20037;-86
2022/09/08 03:21:05;;;;;;;5.75;2.10;;;;;;;;;;5054810;28;20447;-86
2022/09/08 03:23:31;;;;;;;4.20;1.80;;;;;;;;;;5055098;28;20103;-86
2022/09/08 03:26:04;;;;;;;4.32;1.83;;;;;;;;;;5054156;28;20441;-86
2022/09/08 03:28:30;;;;;;;3.05;2.03;;;;;;;;;;5056085;28;20044;-85
2022/09/08 03:30:56;;;;;;;4.43;1.90;;;;;;;;;;5053857;28;20044;-86
2022/09/08 03:33:22;;;;;;;6.32;2.15;;;;;;;;;;5052600;28;20033;-85
2022/09/08 03:35:47;;;;;;;3.55;2.17;;;;;;;;;;5053609;28;20508;-86
2022/09/08 03:38:15;;;;;;;5.15;1.98;;;;;;;;;;5055007;28;20029;-86
2022/09/08 03:40:41;;;;;;;4.88;2.20;;;;;;;;;;5057049;28;20040;-85
2022/09/08 03:43:08;;;;;;;6.97;2.60;;;;;;;;;;5057563;28;20440;-85
2022/09/08 03:45:33;;;;;;;4.18;2.00;;;;;;;;;;5056137;28;20036;-86
2022/09/08 03:47:59;;;;;;;3.10;2.10;;;;;;;;;;5058684;28;20027;-86
2022/09/08 03:50:25;;;;;;;1.83;1.63;;;;;;;;;;5058558;28;20041;-86
2022/09/08 03:52:53;;;;;;;3.47;2.17;;;;;;;;;;5058617;28;20039;-86
2022/09/08 03:55:19;;;;;;;3.30;1.90;;;;;;;;;;5056586;28;20079;-86
2022/09/08 03:57:44;;;;;;;6.38;2.20;;;;;;;;;;5039660;28;20036;-85
2022/09/08 04:00:12;;;;;;;5.50;2.47;;;;;;;;;;5073279;28;20025;-86
2022/09/08 04:02:38;;;;;;;6.70;2.40;;;;;;;;;;5058117;28;20485;-86
2022/09/08 04:05:04;;;;;;;5.25;2.42;;;;;;;;;;5057123;28;20040;-86
2022/09/08 04:07:31;;;;;;;3.40;2.30;;;;;;;;;;5056773;28;20449;-85
2022/09/08 04:09:57;;;;;;;7.78;2.40;;;;;;;;;;5057483;28;20040;-84
2022/09/08 04:12:25;;;;;;;3.72;1.90;;;;;;;;;;5057431;28;20482;-85
2022/09/08 04:14:51;;;;;;;4.10;2.08;;;;;;;;;;5057092;28;20071;-85
2022/09/08 04:17:18;;;;;;;4.13;2.17;;;;;;;;;;5056678;28;20039;-86
2022/09/08 04:19:43;;;;;;;4.45;2.00;;;;;;;;;;5056684;28;20052;-85
2022/09/08 04:22:10;;;;;;;4.93;1.95;;;;;;;;;;5056611;28;20033;-85
2022/09/08 04:24:35;;;;;;;2.95;1.80;;;;;;;;;;5055860;28;20037;-85
2022/09/08 04:27:01;;;;;;;3.28;1.85;;;;;;;;;;5056740;28;20037;-86
2022/09/08 04:29:26;;;;;;;4.05;1.60;;;;;;;;;;5056071;28;20037;-86
2022/09/08 04:31:52;;;;;;;3.95;1.70;;;;;;;;;;5057167;28;20044;-86
2022/09/08 04:34:18;;;;;;;3.95;1.70;;;;;;;;;;5056677;28;20036;-86
2022/09/08 04:36:44;;;;;;;7.88;1.90;;;;;;;;;;5057252;28;20025;-85
2022/09/08 04:39:11;;;;;;;6.57;1.80;;;;;;;;;;5056622;28;20032;-86
2022/09/08 04:41:37;;;;;;;3.47;1.80;;;;;;;;;;5054796;28;20029;-85
2022/09/08 04:44:03;;;;;;;4.50;1.70;;;;;;;;;;5055695;28;20098;-85
2022/09/08 04:46:31;;;;;;;3.45;1.73;;;;;;;;;;5057274;28;20082;-84
2022/09/08 04:48:57;;;;;;;5.25;1.90;;;;;;;;;;5058225;28;20129;-86
2022/09/08 04:51:24;;;;;;;2.72;1.75;;;;;;;;;;5054779;28;20120;-86
2022/09/08 04:53:55;;;;;;;3.65;1.70;;;;;;;;;;5054322;28;20091;-85
2022/09/08 04:56:22;;;;;;;2.83;1.67;;;;;;;;;;5055484;28;20033;-86
2022/09/08 04:58:49;;;;;;;3.85;1.73;;;;;;;;;;5054968;28;20108;-87
2022/09/08 05:01:21;;;;;;;2.72;1.55;;;;;;;;;;5056225;28;20044;-86
2022/09/08 05:03:53;;;;;;;3.83;1.70;;;;;;;;;;5057650;28;20037;-86
2022/09/08 05:06:19;;;;;;;5.22;1.63;;;;;;;;;;5060544;28;20497;-87
2022/09/08 05:08:48;;;;;;;2.58;1.67;;;;;;;;;;5061467;28;20036;-87
2022/09/08 05:11:14;;;;;;;2.90;1.75;;;;;;;;;;5061061;28;20040;-87
2022/09/08 05:13:40;;;;;;;3.15;1.60;;;;;;;;;;5061933;28;20033;-87
2022/09/08 05:16:12;;;;;;;3.90;2.20;;;;;;;;;;5061239;28;20043;-87
2022/09/08 05:18:38;;;;;;;4.63;1.70;;;;;;;;;;5061555;28;20044;-87
2022/09/08 05:21:04;;;;;;;4.15;1.55;;;;;;;;;;5060225;28;20037;-87
2022/09/08 05:23:30;;;;;;;6.53;1.65;;;;;;;;;;5060161;28;20075;-86
2022/09/08 05:25:59;;;;;;;2.72;1.60;;;;;;;;;;5059083;28;20033;-87
2022/09/08 05:28:29;;;;;;;3.78;1.58;;;;;;;;;;5060742;28;20059;-87
2022/09/08 05:30:56;;;;;;;3.53;1.67;;;;;;;;;;5059558;28;20078;-87
2022/09/08 05:33:23;;;;;;;3.63;1.70;;;;;;;;;;5062049;28;20028;-87
2022/09/08 05:35:49;;;;;;;3.08;1.65;;;;;;;;;;5061251;28;20041;-87
2022/09/08 05:38:15;;;;;;;4.07;1.60;;;;;;;;;;5061325;28;20094;-87
2022/09/08 05:40:41;;;;;;;2.30;1.38;;;;;;;;;;5061660;28;20028;-86
2022/09/08 05:43:06;;;;;;;2.30;1.40;;;;;;;;;;5061278;28;20516;-87
2022/09/08 05:45:32;;;;;;;2.45;1.30;;;;;;;;;;5059658;28;20044;-86
2022/09/08 05:47:58;;;;;;;4.05;1.40;;;;;;;;;;5061954;28;20036;-87
2022/09/08 05:50:23;;;;;;;1.77;1.27;;;;;;;;;;5062435;28;20025;-87
2022/09/08 05:52:49;;;;;;;2.42;1.30;;;;;;;;;;5061473;28;20460;-87
2022/09/08 05:55:14;;;;;;;1.73;1.30;;;;;;;;;;5060055;28;20025;-87
2022/09/08 05:57:40;;;;;;;4.65;1.30;;;;;;;;;;5059588;28;20029;-87
2022/09/08 06:00:07;;;;;;;1.95;1.30;;;;;;;;;;5059109;28;20063;-87
2022/09/08 06:02:35;;;;;;;1.77;1.08;;;;;;;;;;5057504;28;20498;-87
2022/09/08 06:05:00;;;;;;;1.98;1.13;;;;;;;;;;5057223;28;20086;-87
2022/09/08 06:07:26;;;;;;;1.60;1.10;;;;;;;;;;5059188;28;20040;-86
2022/09/08 06:09:52;;;;;;;2.47;1.08;;;;;;;;;;5056406;28;20043;-87
2022/09/08 06:12:18;;;;;;;4.10;1.20;;;;;;;;;;5054305;28;20127;-86
2022/09/08 06:14:43;;;;;;;2.35;1.20;;;;;;;;;;5056500;28;20071;-86
2022/09/08 06:17:10;;;;;;;2.25;1.20;;;;;;;;;;5056543;28;20044;-86
2022/09/08 06:19:36;;;;;;;2.75;1.10;;;;;;;;;;5057653;28;20021;-86
2022/09/08 06:22:02;;;;;;;3.17;1.30;;;;;;;;;;5054333;28;20044;-86
2022/09/08 06:24:27;;;;;;;1.98;1.20;;;;;;;;;;5054248;28;20036;-85
2022/09/08 06:27:13;;;;;;;1.92;1.20;;;;;;;;;;5053770;28;20389;-85
2022/09/08 06:30:01;;;;;;;3.00;1.20;;;;;;;;;;5053976;28;20555;-85
2022/09/08 06:32:34;;;;;;;2.15;1.30;;;;;;;;;;5054769;28;20037;-86
2022/09/08 06:35:12;;;;;;;1.67;1.00;;;;;;;;;;5052665;28;20100;-86
2022/09/08 06:37:43;;;;;;;1.75;1.02;;;;;;;;;;5054656;28;20032;-85
2022/09/08 06:40:35;;;;;;;1.67;1.10;;;;;;;;;;5053763;28;20068;-86
2022/09/08 06:43:24;;;;;;;2.25;1.05;;;;;;;;;;5053193;28;20112;-86
2022/09/08 06:45:55;;;;;;;1.25;1.00;;;;;;;;;;5053904;28;20063;-86
2022/09/08 06:48:34;;;;;;;2.35;1.00;;;;;;;;;;5053870;28;20028;-86
2022/09/08 06:51:34;;;;;;;1.70;0.85;;;;;;;;;;5052703;28;20037;-86
2022/09/08 06:54:08;;;;;;;2.00;1.10;;;;;;;;;;5051926;28;20041;-85
2022/09/08 06:56:48;;;;;;;1.60;1.08;;;;;;;;;;5054266;28;20064;-86
2022/09/08 06:59:42;;;;;;;1.60;1.00;;;;;;;;;;5055068;28;20033;-86
2022/09/08 07:02:07;;;;;;;2.20;1.00;;;;;;;;;;5056608;28;20128;-85
2022/09/08 07:04:55;;;;;;;2.50;0.80;;;;;;;;;;5053900;28;20087;-85
2022/09/08 07:07:59;;;;;;;3.13;0.90;;;;;;;;;;5052894;28;20118;-86
2022/09/08 07:10:32;;;;;;;;;;;;;;;;;;5049341;28;20413;-87
2022/09/08 07:13:00;;;;;;;2.08;0.90;;;;;;;;;;5053305;28;19912;-87
2022/09/08 07:15:52;;;;;;;1.52;0.90;;;;;;;;;;5052319;28;20037;-84
2022/09/08 07:18:26;;;;;;;1.80;0.88;;;;;;;;;;5052373;28;20122;-84
2022/09/08 07:21:24;;;;;;;1.55;0.70;;;;;;;;;;5052156;28;20036;-83
2022/09/08 07:23:51;;;;;;;2.38;1.10;;;;;;;;;;5028094;28;20454;-83
2022/09/08 07:26:29;;;;;;;1.33;0.70;;;;;;;;;;5047790;28;20025;-84
2022/09/08 07:29:02;;;;;;;1.48;1.00;;;;;;;;;;5031546;28;20034;-84
2022/09/08 07:31:28;;;;;;;2.35;0.90;;;;;;;;;;5032005;28;20045;-84
2022/09/08 07:34:02;;;;;;;1.13;0.70;;;;;;;;;;5032000;28;20155;-84
2022/09/08 07:36:43;;;;;;;0.88;0.60;;;;;;;;;;5031816;28;20132;-84
2022/09/08 07:39:20;;;;;;;2.03;0.85;;;;;;;;;;5031873;28;20409;-84
2022/09/08 07:41:59;;;;;;;1.35;0.80;;;;;;;;;;5032051;28;20048;-84
2022/09/08 07:44:25;;;;;;;1.05;0.70;;;;;;;;;;5030030;28;20045;-84
2022/09/08 07:47:09;;;;;;;5.05;0.80;;;;;;;;;;5030553;28;20044;-84
2022/09/08 07:50:03;;;;;;;2.03;0.60;;;;;;;;;;5032582;28;20089;-84
2022/09/08 07:52:56;;;;;;;3.33;0.57;;;;;;;;;;5032811;28;20509;-84
2022/09/08 07:55:24;;;;;;;2.78;0.70;;;;;;;;;;5033906;28;20044;-84
2022/09/08 07:58:14;;;;;;;1.88;0.70;;;;;;;;;;5033527;28;20037;-86
2022/09/08 08:01:08;;;;;;;2.03;0.60;;;;;;;;;;5034499;28;20060;-85
2022/09/08 08:03:49;;;;;;;1.83;0.40;;;;;;;;;;5034548;28;20445;-86
2022/09/08 08:06:23;;;;;;;1.52;0.57;;;;;;;;;;5034258;28;20037;-85
2022/09/08 08:09:07;;;;;;;1.17;0.65;;;;;;;;;;5034129;28;20133;-85
2022/09/08 08:11:39;;;;;;;1.60;0.60;;;;;;;;;;5032585;28;20041;-85
2022/09/08 08:14:13;;;;;;;3.60;0.60;;;;;;;;;;5034157;28;20037;-87
2022/09/08 08:17:00;;;;;;;1.98;0.70;;;;;;;;;;5032210;28;20037;-85
2022/09/08 08:19:47;;;;;;;1.13;0.65;;;;;;;;;;5031686;28;20076;-86
2022/09/08 08:22:40;;;;;;;0.50;0.50;;;;;;;;;;5032624;28;20509;-86
2022/09/08 08:25:29;;;;;;;0.68;0.43;;;;;;;;;;5036201;28;20117;-92
2022/09/08 08:28:16;;;;;;;0.98;0.50;;;;;;;;;;5039496;28;20041;-86
2022/09/08 08:31:22;;;;;;;0.63;0.55;;;;;;;;;;5040461;28;20033;-86
2022/09/08 08:33:54;;;;;;;2.15;0.38;;;;;;;;;;5025483;28;20052;-85
2022/09/08 08:36:23;;;;;;;0.65;0.43;;;;;;;;;;5036944;28;20540;-86
2022/09/08 08:38:53;;;;;;;1.35;0.47;;;;;;;;;;5035738;28;20033;-86
2022/09/08 08:41:34;;;;;;;0.73;0.40;;;;;;;;;;5036616;28;20099;-86
2022/09/08 08:44:05;;;;;;;0.30;0.30;;;;;;;;;;5036678;28;20036;-85
2022/09/08 08:47:07;;;;;;;1.05;0.40;;;;;;;;;;5037744;28;20501;-84
2022/09/08 08:49:50;;;;;;;0.52;0.30;;;;;;;;;;5036858;28;20124;-85
2022/09/08 08:52:18;;;;;;;0.40;0.40;;;;;;;;;;5035495;28;20038;-85
2022/09/08 08:55:10;;;;;;;0.20;0.20;;;;;;;;;;5036231;28;20034;-85
2022/09/08 08:58:06;;;;;;;0.68;0.40;;;;;;;;;;5017535;28;20056;-85
2022/09/08 09:00:40;;;;;;;1.15;0.55;;;;;;;;;;5036903;28;20091;-85
2022/09/08 09:03:31;;;;;;;0.60;0.57;;;;;;;;;;5035563;28;20037;-85
2022/09/08 09:06:06;;;;;;;0.95;0.60;;;;;;;;;;5036210;28;20048;-85
2022/09/08 09:08:44;;;;;;;0.73;0.40;;;;;;;;;;5036609;28;20394;-85
2022/09/08 09:11:52;;;;;;;1.83;0.90;;;;;;;;;;5035392;28;20034;-85
2022/09/08 09:14:58;;;;;;;0.73;0.47;;;;;;;;;;5035914;28;20061;-85
2022/09/08 09:17:51;;;;;;;0.80;0.35;;;;;;;;;;5036277;28;20490;-85
2022/09/08 09:20:26;;;;;;;1.08;0.43;;;;;;;;;;5036537;28;20032;-85
2022/09/08 09:23:13;;;;;;;0.32;0.32;;;;;;;;;;5036573;28;20037;-85
2022/09/08 09:26:00;;;;;;;0.57;0.40;;;;;;;;;;5034659;28;20124;-85
2022/09/08 09:28:55;;;;;;;0.30;0.30;;;;;;;;;;5037430;28;20072;-85
2022/09/08 09:31:45;;;;;;;1.85;1.30;;;;;;;;;;5036215;28;20470;-85
2022/09/08 09:35:02;;;;;;;1.88;1.33;;;;;;;;;;5035628;28;20052;-85
2022/09/08 09:38:18;;;;;;;4.40;0.80;;;;;;;;;;5013300;28;20125;-85
2022/09/08 09:40:52;;;;;;;0.75;0.50;;;;;;;;;;4994254;28;20129;-85
2022/09/08 09:43:39;;;;;;;0.60;0.60;;;;;;;;;;5030023;28;20417;-85
2022/09/08 09:46:20;;;;;;;1.95;0.40;;;;;;;;;;5035296;28;20038;-85
2022/09/08 09:49:23;;;;;;;0.75;0.55;;;;;;;;;;5035927;28;20060;-85
2022/09/08 09:52:06;;;;;;;1.83;0.50;;;;;;;;;;5034528;28;20065;-85
2022/09/08 09:54:32;;;;;;;;;;;;;;;;;;5035763;28;20432;-84
2022/09/08 09:57:19;;;;;;;1.30;0.70;;;;;;;;;;5036221;28;19913;-86
2022/09/08 10:00:13;;;;;;;0.32;0.30;;;;;;;;;;5036031;28;20037;-86
2022/09/08 10:02:41;;;;;;;0.38;0.20;;;;;;;;;;5035764;28;20037;-86
2022/09/08 10:05:43;;;;;;;1.23;0.10;;;;;;;;;;5035024;28;20037;-86
2022/09/08 10:08:29;;;;;;;0.40;0.20;;;;;;;;;;5035931;28;20037;-86
2022/09/08 10:11:16;;;;;;;0.77;0.28;;;;;;;;;;5032829;28;20391;-86
2022/09/08 10:14:01;;;;;;;0.77;0.50;;;;;;;;;;5035197;28;20413;-86
2022/09/08 10:16:41;;;;;;;11.65;7.30;;;;;;;;;;5035822;28;20026;-86
2022/09/08 10:19:25;;;;;;;3.97;2.58;;;;;;;;;;5036435;28;20077;-86
2022/09/08 10:22:12;;;;;;;8.43;5.10;;;;;;;;;;5035560;28;20053;-86
2022/09/08 10:24:37;;;;;;;7.22;4.88;;;;;;;;;;5035134;28;20039;-86
2022/09/08 10:27:12;;;;;;;1.15;0.90;;;;;;;;;;5035486;28;20397;-86
2022/09/08 10:30:04;;;;;;;1.77;0.30;;;;;;;;;;5035663;28;20038;-86
2022/09/08 10:33:08;;;;;;;1.20;1.10;;;;;;;;;;5034834;28;20041;-85
2022/09/08 10:36:06;;;;;;;4.50;1.42;;;;;;;;;;5035041;28;20128;-86
2022/09/08 10:39:20;;;;;;;1.60;1.10;;;;;;;;;;5033332;28;20077;-85
2022/09/08 10:42:16;;;;;;;2.70;0.83;;;;;;;;;;4966363;28;20039;-85
2022/09/08 10:45:21;;;;;;;1.38;0.68;;;;;;;;;;5033361;28;20288;-84
2022/09/08 10:48:03;;;;;;;5.25;1.00;;;;;;;;;;5033519;28;20037;-85
2022/09/08 10:50:32;;;;;;;1.10;0.80;;;;;;;;;;5038291;28;20033;-84
2022/09/08 10:52:58;;;;;;;0.82;0.70;;;;;;;;;;5053431;28;20037;-83
2022/09/08 10:55:36;;;;;;;1.55;1.27;;;;;;;;;;5055134;28;20545;-83
2022/09/08 10:59:08;;;;;;;2.03;1.20;;;;;;;;;;5053367;28;20064;-83
2022/09/08 11:01:56;;;;;;;1.23;0.73;;;;;;;;;;4973340;28;20368;-83
2022/09/08 11:04:33;;;;;;;0.65;0.50;;;;;;;;;;5052133;28;20508;-83
2022/09/08 11:06:59;;;;;;;0.80;0.50;;;;;;;;;;5054503;28;20036;-82
2022/09/08 11:09:46;;;;;;;0.82;0.50;;;;;;;;;;5054287;28;20040;-82
2022/09/08 11:12:30;;;;;;;0.40;0.40;;;;;;;;;;5052310;28;20037;-82
2022/09/08 11:15:14;;;;;;;2.40;0.47;;;;;;;;;;5053971;28;20088;-83
2022/09/08 11:17:44;;;;;;;;;;;;;;;;;;5054537;28;20036;-82
2022/09/08 11:20:43;;;;;;;1.13;0.30;;;;;;;;;;5054439;28;19916;-82
2022/09/08 11:23:30;;;;;;;1.27;0.45;;;;;;;;;;5052788;28;20043;-82
2022/09/08 11:26:13;;;;;;;1.15;0.60;;;;;;;;;;5053235;28;20555;-83
2022/09/08 11:28:50;;;;;;;;;;;;;;;;;;5054197;28;20114;-82
2022/09/08 11:31:30;;;;;;;1.48;0.57;;;;;;;;;;5053956;28;19913;-83
2022/09/08 11:34:02;;;;;;;1.90;0.55;;;;;;;;;;5052128;28;20509;-82
2022/09/08 11:36:54;;;;;;;1.55;0.70;;;;;;;;;;5052328;28;20029;-83
2022/09/08 11:39:44;;;;;;;2.10;0.70;;;;;;;;;;5016082;28;20442;-81
2022/09/08 11:42:20;;;;;;;1.73;0.90;;;;;;;;;;5059975;22;20052;-82
2022/09/08 11:45:09;;;;;;;2.53;1.20;;;;;;;;;;5031534;28;20110;-83
2022/09/08 11:47:57;;;;;;;1.60;0.82;;;;;;;;;;5033285;28;20144;-82
2022/09/08 11:51:00;;;;;;;1.10;0.85;;;;;;;;;;5033144;28;20120;-82
2022/09/08 11:53:59;;;;;;;1.58;0.88;;;;;;;;;;5012835;28;20147;-83
2022/09/08 11:57:22;;;;;;;1.15;0.50;;;;;;;;;;5015644;28;20026;-83
2022/09/08 12:00:14;;;;;;;0.77;0.50;;;;;;;;;;4953912;28;20042;-82
2022/09/08 12:03:02;;;;;;;0.68;0.40;;;;;;;;;;5000374;28;20041;-82
2022/09/08 12:05:28;;;;;;;1.63;0.43;;;;;;;;;;5017498;28;20030;-83
2022/09/08 12:08:24;;;;;;;0.80;0.55;;;;;;;;;;5021449;28;20033;-83
2022/09/08 12:11:16;;;;;;;3.28;0.60;;;;;;;;;;5000457;28;20030;-83
2022/09/08 12:13:57;;;;;;;0.60;0.40;;;;;;;;;;4977731;28;20054;-82
2022/09/08 12:16:54;;;;;;;2.28;0.52;;;;;;;;;;5000574;28;20603;-83
2022/09/08 12:19:53;;;;;;;0.50;0.40;;;;;;;;;;5000493;28;20038;-83
2022/09/08 12:22:18;;;;;;;0.43;0.40;;;;;;;;;;5000252;28;20037;-82
2022/09/08 12:25:08;;;;;;;1.30;0.50;;;;;;;;;;5018241;28;20386;-83
2022/09/08 12:27:46;;;;;;;0.68;0.55;;;;;;;;;;5018062;28;20450;-83
2022/09/08 12:30:20;;;;;;;2.25;0.60;;;;;;;;;;5001230;28;20080;-83
2022/09/08 12:33:25;;;;;;;0.68;0.40;;;;;;;;;;5016637;28;20046;-81
2022/09/08 12:36:05;;;;;;;0.82;0.57;;;;;;;;;;5008626;28;20050;-83
2022/09/08 12:38:55;;;;;;;1.15;0.60;;;;;;;;;;5017277;28;20044;-83
2022/09/08 12:41:30;;;;;;;3.72;0.82;;;;;;;;;;5018448;28;20069;-83
2022/09/08 12:44:13;;;;;;;0.52;0.50;;;;;;;;;;5023024;28;20094;-83
2022/09/08 12:47:05;;;;;;;0.35;0.20;;;;;;;;;;5022886;28;20117;-83
2022/09/08 12:50:06;;;;;;;0.40;0.40;;;;;;;;;;5019668;28;20045;-84
2022/09/08 12:53:02;;;;;;;0.73;0.35;;;;;;;;;;5021308;28;20030;-83
2022/09/08 12:55:39;;;;;;;2.47;0.40;;;;;;;;;;5020155;28;20061;-84
2022/09/08 12:58:05;;;;;;;1.08;0.22;;;;;;;;;;5022217;28;20068;-83
2022/09/08 13:00:36;;;;;;;0.80;0.47;;;;;;;;;;5022159;28;20529;-84
2022/09/08 13:03:21;;;;;;;1.85;0.30;;;;;;;;;;5021606;28;20030;-83
2022/09/08 13:06:04;;;;;;;1.05;0.30;;;;;;;;;;5021036;28;20418;-85
2022/09/08 13:08:42;;;;;;;;;;;;;;;;;;5022882;28;20030;-84
2022/09/08 13:11:15;;;;;;;0.20;0.20;;;;;;;;;;5020426;28;19921;-84
2022/09/08 13:13:44;;;;;;;0.32;0.28;;;;;;;;;;5004747;28;20038;-84
2022/09/08 13:16:28;;;;;;;0.28;0.28;;;;;;;;;;5020202;28;20514;-83
2022/09/08 13:19:09;;;;;;;0.75;0.40;;;;;;;;;;5021875;28;20034;-83
2022/09/08 13:21:40;;;;;;;0.47;0.30;;;;;;;;;;5021003;28;20408;-83
2022/09/08 13:24:38;;;;;;;0.20;0.15;;;;;;;;;;5019636;28;20045;-83
2022/09/08 13:27:45;;;;;;;0.10;0.10;;;;;;;;;;4955925;28;20050;-83
2022/09/08 13:30:19;;;;;;;0.20;0.20;;;;;;;;;;4995909;28;20049;-83
2022/09/08 13:33:12;;;;;;;0.38;0.30;;;;;;;;;;5019933;28;20517;-85
2022/09/08 13:36:08;;;;;;;0.52;0.20;;;;;;;;;;5001382;28;20087;-84
2022/09/08 13:38:34;;;;;;;0.52;0.20;;;;;;;;;;5021010;28;20113;-83
2022/09/08 13:41:15;;;;;;;1.10;0.35;;;;;;;;;;5004272;28;20030;-83
2022/09/08 13:44:18;;;;;;;0.40;0.10;;;;;;;;;;5021041;28;20406;-83
2022/09/08 13:47:06;;;;;;;0.47;0.20;;;;;;;;;;5022598;28;20030;-83
2022/09/08 13:49:50;;;;;;;0.20;0.20;;;;;;;;;;5021382;28;20049;-83
2022/09/08 13:53:00;;;;;;;1.40;0.20;;;;;;;;;;5004715;28;20046;-83
2022/09/08 13:55:46;;;;;;;0.30;0.30;;;;;;;;;;5007273;28;20510;-83
2022/09/08 13:58:34;;;;;;;0.52;0.20;;;;;;;;;;5008194;28;20044;-83
2022/09/08 14:01:10;;;;;;;0.63;0.30;;;;;;;;;;5029706;28;20088;-83
2022/09/08 14:04:14;;;;;;;0.20;0.20;;;;;;;;;;5030579;28;20092;-83
2022/09/08 14:06:51;;;;;;;2.55;0.30;;;;;;;;;;5014132;28;20044;-82
2022/09/08 14:09:26;;;;;;;0.30;0.20;;;;;;;;;;5035073;28;20033;-83
2022/09/08 14:12:10;;;;;;;0.57;0.30;;;;;;;;;;5022557;28;20059;-83
2022/09/08 14:15:07;;;;;;;0.43;0.20;;;;;;;;;;5040408;28;20564;-83
2022/09/08 14:17:49;;;;;;;3.08;0.40;;;;;;;;;;5023108;28;20060;-82
2022/09/08 14:20:36;;;;;;;0.25;0.25;;;;;;;;;;5041106;28;20076;-83
2022/09/08 14:23:02;;;;;;;0.28;0.17;;;;;;;;;;5038501;28;20059;-83
2022/09/08 14:25:36;;;;;;;0.50;0.20;;;;;;;;;;5040334;28;20037;-82
2022/09/08 14:28:18;;;;;;;0.85;0.22;;;;;;;;;;5040932;28;20494;-81
2022/09/08 14:30:58;;;;;;;0.00;0.00;;;;;;;;;;5041769;28;20033;-83
2022/09/08 14:33:35;;;;;;;0.20;0.20;;;;;;;;;;5040790;28;20383;-83
2022/09/08 14:36:40;;;;;;;7.43;0.50;;;;;;;;;;5040429;28;20124;-83
2022/09/08 14:39:13;;;;;;;0.10;0.10;;;;;;;;;;5037850;28;20026;-87
2022/09/08 14:42:13;;;;;;;0.20;0.15;;;;;;;;;;5019406;28;20115;-83
2022/09/08 14:44:48;;;;;;;0.15;0.10;;;;;;;;;;5003296;28;20051;-83
2022/09/08 14:47:38;;;;;;;0.22;0.20;;;;;;;;;;5017232;28;20051;-83
2022/09/08 14:50:23;;;;;;;0.40;0.40;;;;;;;;;;5035657;28;20443;-84
2022/09/08 14:52:51;;;;;;;0.90;0.30;;;;;;;;;;5002372;28;20049;-84
2022/09/08 14:55:39;;;;;;;1.23;0.40;;;;;;;;;;5035973;28;20065;-84
2022/09/08 14:58:20;;;;;;;0.93;0.22;;;;;;;;;;5027797;28;20038;-83
2022/09/08 15:00:49;;;;;;;0.50;0.30;;;;;;;;;;4998785;28;20034;-83
2022/09/08 15:03:21;;;;;;;0.98;0.28;;;;;;;;;;5017025;28;20041;-82
2022/09/08 15:05:48;;;;;;;1.45;0.30;;;;;;;;;;4996578;28;20048;-84
2022/09/08 15:08:16;;;;;;;1.58;0.40;;;;;;;;;;5017259;28;20038;-85
2022/09/08 15:10:49;;;;;;;0.60;0.40;;;;;;;;;;5016141;28;20053;-84
2022/09/08 15:13:25;;;;;;;0.57;0.23;;;;;;;;;;4999650;28;20042;-85
2022/09/08 15:15:51;;;;;;;0.30;0.30;;;;;;;;;;5016657;28;20083;-84
2022/09/08 15:18:16;;;;;;;0.47;0.30;;;;;;;;;;5016744;28;20037;-84
2022/09/08 15:20:48;;;;;;;0.98;0.38;;;;;;;;;;5017145;28;20046;-85
2022/09/08 15:23:49;;;;;;;0.73;0.45;;;;;;;;;;4997974;28;20100;-85
2022/09/08 15:26:37;;;;;;;0.30;0.30;;;;;;;;;;4980908;28;20495;-85
2022/09/08 15:29:12;;;;;;;0.40;0.40;;;;;;;;;;5016101;28;20026;-85
2022/09/08 15:31:45;;;;;;;0.22;0.22;;;;;;;;;;5016581;28;20211;-85
2022/09/08 15:34:16;;;;;;;1.48;0.30;;;;;;;;;;5017380;28;20034;-87
2022/09/08 15:37:08;;;;;;;0.57;0.40;;;;;;;;;;5001915;28;20057;-87
2022/09/08 15:39:42;;;;;;;0.35;0.28;;;;;;;;;;5003128;28;20045;-85
2022/09/08 15:42:26;;;;;;;0.45;0.30;;;;;;;;;;5001884;28;20133;-80
2022/09/08 15:45:07;;;;;;;0.68;0.40;;;;;;;;;;5019816;28;20037;-83
2022/09/08 15:47:41;;;;;;;0.20;0.20;;;;;;;;;;5020748;28;20041;-83